createdAt,value
2018-03-14T00:00:22.359Z,79.10
2018-03-14T00:02:49.085Z,79.00
2018-03-14T00:05:15.054Z,79.00
2018-03-14T00:07:41.779Z,79.30
2018-03-14T00:10:07.820Z,79.30
2018-03-14T00:12:33.849Z,79.10
2018-03-14T00:15:01.333Z,79.00
2018-03-14T00:17:28.056Z,78.90
2018-03-14T00:19:54.032Z,78.90
2018-03-14T00:22:30.811Z,78.20
2018-03-14T00:24:56.795Z,78.20
2018-03-14T00:27:22.797Z,78.20
2018-03-14T00:29:49.563Z,77.80
2018-03-14T00:32:15.558Z,78.40
2018-03-14T00:34:42.264Z,78.90
2018-03-14T00:37:09.743Z,79.10
2018-03-14T00:39:35.707Z,79.10
2018-03-14T00:42:01.701Z,79.10
2018-03-14T00:44:27.884Z,79.60
2018-03-14T00:46:53.953Z,79.20
2018-03-14T00:49:19.966Z,79.20
2018-03-14T00:51:45.987Z,79.40
2018-03-14T00:54:12.696Z,78.10
2018-03-14T00:56:38.656Z,78.10
2018-03-14T00:59:04.850Z,78.50
2018-03-14T01:01:30.831Z,78.80
2018-03-14T01:03:56.840Z,78.70
2018-03-14T01:06:22.954Z,79.90
2018-03-14T01:08:48.948Z,78.40
2018-03-14T01:11:14.952Z,77.60
2018-03-14T01:13:40.939Z,77.30
2018-03-14T01:16:06.914Z,77.60
2018-03-14T01:18:32.906Z,77.70
2018-03-14T01:20:59.024Z,77.90
2018-03-14T01:23:26.102Z,78.30
2018-03-14T01:25:52.850Z,78.00
2018-03-14T01:28:19.996Z,78.50
2018-03-14T01:30:45.964Z,78.40
2018-03-14T01:33:11.968Z,78.50
2018-03-14T01:35:37.957Z,78.90
2018-03-14T01:38:03.960Z,79.70
2018-03-14T01:40:29.997Z,79.30
2018-03-14T01:42:56.066Z,79.20
2018-03-14T01:45:22.225Z,79.10
2018-03-14T01:47:48.193Z,79.50
2018-03-14T01:50:14.212Z,79.50
2018-03-14T01:52:40.196Z,80.20
2018-03-14T01:55:06.194Z,80.00
2018-03-14T01:57:32.363Z,79.80
2018-03-14T01:59:58.347Z,79.80
2018-03-14T02:02:24.325Z,80.20
2018-03-14T02:04:50.332Z,80.20
2018-03-14T02:07:16.317Z,80.10
2018-03-14T02:09:43.774Z,80.60
2018-03-14T02:12:09.784Z,80.50
2018-03-14T02:14:35.775Z,80.20
2018-03-14T02:17:02.607Z,80.50
2018-03-14T02:19:29.081Z,80.40
2018-03-14T02:21:55.084Z,80.90
2018-03-14T02:24:21.071Z,81.30
2018-03-14T02:26:47.121Z,81.40
2018-03-14T02:29:13.104Z,81.40
2018-03-14T02:31:39.832Z,81.30
2018-03-14T02:34:05.949Z,81.30
2018-03-14T02:36:44.323Z,81.70
2018-03-14T02:39:10.353Z,81.20
2018-03-14T02:41:36.329Z,81.80
2018-03-14T02:44:02.347Z,82.20
2018-03-14T02:46:28.385Z,82.40
2018-03-14T02:48:54.442Z,82.90
2018-03-14T02:51:20.677Z,83.40
2018-03-14T02:53:46.685Z,83.90
2018-03-14T02:56:12.668Z,84.70
2018-03-14T02:58:38.649Z,85.30
2018-03-14T03:01:04.731Z,86.10
2018-03-14T03:03:30.706Z,86.00
2018-03-14T03:05:57.528Z,86.30
2018-03-14T03:08:23.809Z,86.20
2018-03-14T03:10:50.602Z,85.40
2018-03-14T03:13:16.578Z,85.40
2018-03-14T03:15:42.585Z,84.70
2018-03-14T03:18:08.574Z,85.00
2018-03-14T03:20:34.554Z,84.90
2018-03-14T03:23:00.557Z,84.60
2018-03-14T03:25:26.564Z,84.20
2018-03-14T03:27:53.344Z,82.90
2018-03-14T03:30:19.365Z,82.80
2018-03-14T03:32:45.341Z,82.60
2018-03-14T03:35:11.356Z,82.20
2018-03-14T03:37:37.358Z,81.90
2018-03-14T03:40:03.360Z,81.90
2018-03-14T03:42:30.818Z,81.40
2018-03-14T03:44:56.967Z,81.40
2018-03-14T03:47:23.080Z,81.50
2018-03-14T03:49:49.129Z,81.80
2018-03-14T03:52:15.164Z,81.50
2018-03-14T03:54:41.147Z,81.70
2018-03-14T03:57:07.116Z,81.50
2018-03-14T03:59:33.099Z,81.90
2018-03-14T04:01:59.098Z,82.20
2018-03-14T04:04:25.101Z,82.30
2018-03-14T04:06:51.214Z,82.40
2018-03-14T04:09:17.205Z,82.70
2018-03-14T04:11:43.192Z,81.40
2018-03-14T04:14:09.924Z,81.70
2018-03-14T04:16:35.925Z,81.70
2018-03-14T04:19:01.922Z,81.80
2018-03-14T04:21:29.161Z,81.30
2018-03-14T04:23:55.228Z,81.20
2018-03-14T04:26:21.241Z,81.50
2018-03-14T04:28:47.683Z,81.80
2018-03-14T04:31:14.401Z,81.10
2018-03-14T04:33:40.366Z,81.10
2018-03-14T04:36:06.686Z,81.00
2018-03-14T04:38:32.680Z,81.30
2018-03-14T04:40:58.672Z,81.40
2018-03-14T04:43:25.453Z,81.60
2018-03-14T04:45:51.570Z,81.50
2018-03-14T04:48:17.602Z,81.90
2018-03-14T04:50:44.962Z,82.30
2018-03-14T04:53:11.698Z,82.40
2018-03-14T04:55:37.724Z,82.40
2018-03-14T04:58:03.876Z,82.00
2018-03-14T05:00:29.856Z,81.90
2018-03-14T05:02:55.930Z,82.20
2018-03-14T05:05:21.948Z,82.50
2018-03-14T05:07:47.932Z,82.40
2018-03-14T05:10:13.943Z,83.00
2018-03-14T05:12:39.971Z,83.00
2018-03-14T05:15:05.983Z,83.20
2018-03-14T05:17:32.017Z,83.50
2018-03-14T05:19:58.200Z,83.00
2018-03-14T05:22:24.246Z,83.10
2018-03-14T05:24:50.973Z,82.60
2018-03-14T05:27:16.952Z,82.60
2018-03-14T05:29:43.678Z,82.50
2018-03-14T05:32:09.650Z,82.50
2018-03-14T05:34:35.680Z,82.40
2018-03-14T05:37:02.420Z,82.50
2018-03-14T05:39:29.192Z,83.10
2018-03-14T05:41:55.248Z,83.10
2018-03-14T05:44:21.304Z,83.50
2018-03-14T05:46:47.301Z,83.50
2018-03-14T05:49:13.292Z,83.00
2018-03-14T05:51:39.264Z,83.20
2018-03-14T05:54:05.221Z,83.00
2018-03-14T05:56:31.222Z,83.40
2018-03-14T05:58:57.247Z,83.90
2018-03-14T06:01:24.188Z,84.20
2018-03-14T06:03:50.284Z,84.10
2018-03-14T06:06:16.296Z,84.40
2018-03-14T06:08:42.304Z,84.30
2018-03-14T06:11:08.368Z,84.30
2018-03-14T06:13:35.092Z,84.30
2018-03-14T06:16:01.066Z,84.30
2018-03-14T06:18:27.049Z,84.30
2018-03-14T06:20:53.233Z,83.70
2018-03-14T06:23:19.257Z,83.30
2018-03-14T06:25:46.013Z,83.60
2018-03-14T06:28:12.731Z,84.10
2018-03-14T06:30:38.708Z,84.10
2018-03-14T06:33:04.709Z,84.70
2018-03-14T06:35:31.424Z,85.40
2018-03-14T06:37:57.497Z,84.70
2018-03-14T06:40:24.952Z,83.80
2018-03-14T06:42:50.978Z,83.50
2018-03-14T06:45:16.991Z,83.40
2018-03-14T06:47:42.990Z,83.60
2018-03-14T06:50:09.710Z,83.20
2018-03-14T06:52:35.739Z,83.20
2018-03-14T06:55:02.023Z,82.50
2018-03-14T06:57:27.977Z,80.00
2018-03-14T07:00:06.208Z,78.40
2018-03-14T07:02:44.537Z,78.80
2018-03-14T07:05:23.170Z,78.10
2018-03-14T07:07:49.133Z,77.40
2018-03-14T07:10:15.105Z,77.30
2018-03-14T07:12:41.845Z,76.50
2018-03-14T07:15:08.557Z,76.00
2018-03-14T07:17:34.756Z,76.00
2018-03-14T07:20:00.757Z,75.40
2018-03-14T07:22:26.769Z,75.50
2018-03-14T07:24:52.776Z,75.20
2018-03-14T07:27:18.792Z,74.70
2018-03-14T07:29:45.487Z,71.40
2018-03-14T07:32:11.473Z,71.20
2018-03-14T07:34:38.256Z,65.30
2018-03-14T07:37:04.241Z,65.20
2018-03-14T07:39:30.953Z,64.50
2018-03-14T07:41:57.024Z,64.50
2018-03-14T07:44:23.014Z,65.60
2018-03-14T07:46:48.972Z,65.40
2018-03-14T07:49:14.957Z,67.20
2018-03-14T07:51:41.675Z,66.20
2018-03-14T07:54:07.671Z,66.10
2018-03-14T07:56:33.700Z,65.60
2018-03-14T07:58:59.678Z,65.80
2018-03-14T08:01:25.628Z,65.40
2018-03-14T08:03:51.608Z,64.70
2018-03-14T08:06:17.593Z,64.80
2018-03-14T08:08:43.567Z,64.40
2018-03-14T08:11:10.281Z,63.20
2018-03-14T08:13:36.433Z,63.20
2018-03-14T08:16:02.347Z,63.10
2018-03-14T08:18:28.344Z,61.30
2018-03-14T08:20:54.321Z,61.20
2018-03-14T08:23:20.313Z,60.60
2018-03-14T08:25:46.323Z,61.20
2018-03-14T08:28:13.052Z,58.60
2018-03-14T08:30:39.028Z,58.50
2018-03-14T08:33:05.085Z,57.80
2018-03-14T08:35:31.057Z,56.50
2018-03-14T08:37:57.013Z,57.30
2018-03-14T08:40:23.004Z,56.50
2018-03-14T08:42:48.999Z,58.00
2018-03-14T08:45:15.723Z,55.00
2018-03-14T08:47:41.712Z,54.80
2018-03-14T08:50:07.725Z,54.90
2018-03-14T08:52:34.491Z,55.40
2018-03-14T08:55:00.481Z,55.40
2018-03-14T08:57:26.437Z,56.00
2018-03-14T08:59:53.141Z,56.30
2018-03-14T09:02:19.404Z,56.20
2018-03-14T09:04:45.389Z,56.40
2018-03-14T09:07:11.357Z,57.30
2018-03-14T09:09:37.533Z,56.60
2018-03-14T09:12:03.544Z,55.80
2018-03-14T09:14:29.516Z,55.10
2018-03-14T09:16:56.293Z,55.00
2018-03-14T09:19:22.265Z,55.00
2018-03-14T09:21:48.225Z,55.30
2018-03-14T09:24:14.228Z,54.70
2018-03-14T09:26:40.192Z,54.00
2018-03-14T09:29:06.175Z,54.80
2018-03-14T09:31:32.754Z,54.00
2018-03-14T09:33:58.712Z,54.10
2018-03-14T09:36:24.724Z,53.70
2018-03-14T09:38:50.698Z,53.90
2018-03-14T09:41:17.417Z,54.00
2018-03-14T09:43:43.377Z,54.00
2018-03-14T09:46:09.351Z,53.80
2018-03-14T09:48:35.402Z,53.20
2018-03-14T09:51:01.381Z,53.30
2018-03-14T09:53:27.382Z,53.40
2018-03-14T09:55:53.401Z,53.70
2018-03-14T09:58:19.362Z,52.10
2018-03-14T10:00:45.426Z,50.30
2018-03-14T10:03:11.320Z,49.30
2018-03-14T10:05:37.345Z,49.00
2018-03-14T10:08:03.431Z,49.10
2018-03-14T10:10:29.397Z,48.00
2018-03-14T10:12:56.104Z,48.50
2018-03-14T10:15:22.101Z,48.50
2018-03-14T10:17:48.092Z,48.20
2018-03-14T10:20:14.051Z,48.50
2018-03-14T10:22:40.790Z,48.90
2018-03-14T10:25:07.535Z,48.30
2018-03-14T10:27:33.515Z,48.30
2018-03-14T10:29:59.505Z,48.40
2018-03-14T10:32:25.472Z,48.40
2018-03-14T10:34:51.441Z,48.20
2018-03-14T10:37:17.948Z,47.70
2018-03-14T10:39:43.915Z,46.80
2018-03-14T10:42:09.886Z,46.50
2018-03-14T10:44:35.943Z,46.40
2018-03-14T10:47:02.696Z,46.80
2018-03-14T10:49:29.438Z,46.50
2018-03-14T10:51:55.567Z,46.40
2018-03-14T10:54:21.533Z,46.40
2018-03-14T10:56:47.505Z,45.70
2018-03-14T10:59:13.710Z,45.10
2018-03-14T11:01:45.700Z,45.80
2018-03-14T11:04:11.656Z,45.50
2018-03-14T11:06:38.546Z,45.00
2018-03-14T11:09:04.533Z,44.10
2018-03-14T11:11:30.588Z,45.90
2018-03-14T11:13:56.593Z,46.20
2018-03-14T11:16:22.546Z,46.30
2018-03-14T11:18:48.522Z,45.40
2018-03-14T11:21:14.500Z,44.60
2018-03-14T11:23:40.457Z,44.70
2018-03-14T11:26:06.461Z,44.90
2018-03-14T11:28:33.217Z,45.30
2018-03-14T11:30:59.921Z,44.30
2018-03-14T11:33:25.886Z,44.30
2018-03-14T11:35:51.916Z,43.60
2018-03-14T11:38:17.873Z,44.10
2018-03-14T11:40:44.573Z,45.20
2018-03-14T11:43:10.752Z,45.10
2018-03-14T11:45:37.474Z,43.20
2018-03-14T11:48:03.536Z,43.20
2018-03-14T11:50:29.573Z,43.10
2018-03-14T11:52:55.546Z,43.80
2018-03-14T11:55:21.523Z,44.20
2018-03-14T11:57:47.658Z,45.30
2018-03-14T12:00:13.668Z,45.40
2018-03-14T12:02:39.629Z,46.60
2018-03-14T12:05:05.670Z,45.80
2018-03-14T12:07:31.750Z,46.60
2018-03-14T12:09:57.736Z,45.00
2018-03-14T12:12:23.775Z,45.60
2018-03-14T12:14:49.708Z,47.20
2018-03-14T12:17:15.673Z,47.80
2018-03-14T12:19:41.665Z,48.80
2018-03-14T12:22:13.877Z,49.70
2018-03-14T12:24:39.850Z,47.60
2018-03-14T12:27:05.917Z,47.20
2018-03-14T12:29:31.898Z,46.80
2018-03-14T12:31:57.904Z,47.80
2018-03-14T12:34:23.884Z,47.90
2018-03-14T12:36:50.604Z,47.00
2018-03-14T12:39:16.653Z,47.00
2018-03-14T12:41:42.663Z,45.90
2018-03-14T12:44:08.643Z,46.20
2018-03-14T12:46:35.589Z,46.90
2018-03-14T12:49:02.429Z,46.00
2018-03-14T12:51:28.433Z,45.80
2018-03-14T12:53:54.440Z,45.70
2018-03-14T12:56:20.503Z,45.30
2018-03-14T12:58:46.466Z,45.70
2018-03-14T13:01:12.486Z,46.00
2018-03-14T13:03:38.487Z,45.90
2018-03-14T13:06:04.491Z,46.30
2018-03-14T13:08:30.453Z,47.20
2018-03-14T13:10:56.664Z,47.80
2018-03-14T13:13:22.625Z,47.90
2018-03-14T13:15:49.365Z,48.60
2018-03-14T13:18:16.127Z,47.90
2018-03-14T13:20:42.889Z,49.10
2018-03-14T13:23:08.870Z,49.10
2018-03-14T13:25:34.960Z,49.10
2018-03-14T13:28:01.693Z,49.30
2018-03-14T13:30:28.389Z,48.30
2018-03-14T13:32:54.436Z,48.20
2018-03-14T13:35:20.347Z,48.30
2018-03-14T13:37:46.301Z,48.00
2018-03-14T13:40:12.281Z,48.70
2018-03-14T13:42:38.255Z,48.00
2018-03-14T13:45:04.276Z,47.90
2018-03-14T13:47:30.291Z,47.70
2018-03-14T13:49:56.229Z,48.20
2018-03-14T13:52:22.249Z,47.50
2018-03-14T13:54:48.241Z,47.60
2018-03-14T13:57:14.212Z,48.50
2018-03-14T13:59:41.680Z,49.00
2018-03-14T14:02:07.782Z,48.90
2018-03-14T14:04:33.769Z,49.80
2018-03-14T14:06:59.720Z,50.60
2018-03-14T14:09:26.450Z,50.00
2018-03-14T14:11:52.444Z,49.90
2018-03-14T14:14:18.451Z,50.40
2018-03-14T14:16:45.377Z,50.50
2018-03-14T14:19:11.344Z,50.50
2018-03-14T14:21:38.070Z,50.30
2018-03-14T14:24:04.086Z,50.30
2018-03-14T14:26:30.051Z,50.40
2018-03-14T14:28:56.013Z,50.30
2018-03-14T14:31:22.011Z,49.70
2018-03-14T14:33:47.991Z,49.10
2018-03-14T14:36:13.961Z,48.30
2018-03-14T14:38:40.117Z,48.00
2018-03-14T14:41:06.881Z,47.30
2018-03-14T14:43:32.856Z,47.30
2018-03-14T14:45:59.251Z,47.60
2018-03-14T14:48:25.213Z,47.40
2018-03-14T14:50:51.921Z,47.00
2018-03-14T14:53:18.077Z,47.00
2018-03-14T14:55:44.052Z,46.40
2018-03-14T14:58:10.761Z,47.40
2018-03-14T15:00:36.804Z,47.90
2018-03-14T15:03:02.814Z,47.00
2018-03-14T15:05:28.799Z,46.80
2018-03-14T15:07:55.530Z,46.30
2018-03-14T15:10:21.537Z,46.30
2018-03-14T15:12:47.513Z,47.10
2018-03-14T15:15:13.503Z,46.80
2018-03-14T15:17:39.476Z,47.40
2018-03-14T15:20:05.517Z,47.80
2018-03-14T15:22:32.516Z,46.70
2018-03-14T15:24:58.493Z,46.70
2018-03-14T15:27:24.466Z,47.60
2018-03-14T15:29:51.184Z,47.80
2018-03-14T15:32:17.169Z,47.80
2018-03-14T15:34:43.141Z,47.70
2018-03-14T15:37:09.300Z,48.50
2018-03-14T15:39:35.292Z,49.20
2018-03-14T15:42:01.262Z,48.50
2018-03-14T15:44:27.265Z,48.00
2018-03-14T15:46:53.243Z,48.90
2018-03-14T15:49:19.246Z,49.90
2018-03-14T15:51:45.257Z,49.90
2018-03-14T15:54:11.299Z,49.80
2018-03-14T15:56:37.310Z,49.80
2018-03-14T15:59:03.386Z,49.60
2018-03-14T16:01:29.361Z,49.20
2018-03-14T16:03:55.335Z,49.20
2018-03-14T16:06:21.522Z,49.70
2018-03-14T16:08:47.485Z,50.00
2018-03-14T16:11:14.207Z,50.00
2018-03-14T16:13:40.197Z,50.50
2018-03-14T16:16:06.209Z,50.50
2018-03-14T16:18:32.938Z,51.30
2018-03-14T16:20:58.928Z,51.20
2018-03-14T16:23:24.919Z,51.60
2018-03-14T16:25:50.892Z,52.10
2018-03-14T16:28:16.950Z,52.00
2018-03-14T16:30:43.624Z,51.90
2018-03-14T16:33:09.629Z,51.90
2018-03-14T16:35:35.628Z,51.80
2018-03-14T16:38:02.355Z,52.30
2018-03-14T16:40:28.538Z,52.20
2018-03-14T16:42:55.284Z,52.60
2018-03-14T16:45:21.988Z,52.20
2018-03-14T16:47:47.952Z,52.00
2018-03-14T16:50:14.086Z,52.20
2018-03-14T16:52:40.065Z,52.20
2018-03-14T16:55:06.176Z,52.60
2018-03-14T16:57:32.962Z,53.50
2018-03-14T16:59:58.945Z,53.50
2018-03-14T17:02:24.930Z,53.40
2018-03-14T17:04:50.940Z,53.60
2018-03-14T17:07:17.645Z,53.70
2018-03-14T17:09:43.621Z,53.70
2018-03-14T17:12:09.681Z,53.80
2018-03-14T17:14:36.415Z,55.20
2018-03-14T17:17:02.397Z,55.20
2018-03-14T17:19:28.402Z,55.60
2018-03-14T17:21:54.386Z,55.20
2018-03-14T17:24:20.357Z,55.90
2018-03-14T17:26:47.190Z,56.10
2018-03-14T17:29:13.156Z,56.10
2018-03-14T17:31:39.862Z,56.40
2018-03-14T17:34:05.885Z,56.30
2018-03-14T17:36:31.856Z,56.70
2018-03-14T17:38:57.822Z,56.50
2018-03-14T17:41:24.324Z,56.50
2018-03-14T17:43:50.315Z,56.70
2018-03-14T17:46:16.290Z,56.70
2018-03-14T17:48:42.445Z,57.20
2018-03-14T17:51:08.437Z,56.70
2018-03-14T17:53:34.433Z,56.70
2018-03-14T17:56:00.441Z,56.90
2018-03-14T17:58:26.426Z,57.20
2018-03-14T18:00:52.392Z,57.40
2018-03-14T18:03:18.364Z,57.60
2018-03-14T18:05:44.375Z,58.10
2018-03-14T18:08:10.344Z,58.10
2018-03-14T18:10:36.351Z,57.90
2018-03-14T18:13:02.344Z,58.40
2018-03-14T18:15:28.312Z,57.80
2018-03-14T18:17:54.370Z,58.20
2018-03-14T18:20:20.334Z,58.40
2018-03-14T18:22:47.062Z,59.10
2018-03-14T18:25:13.037Z,59.10
2018-03-14T18:27:39.778Z,59.80
2018-03-14T18:30:06.584Z,60.30
2018-03-14T18:32:32.640Z,60.20
2018-03-14T18:34:58.615Z,60.20
2018-03-14T18:37:24.746Z,60.80
2018-03-14T18:39:51.533Z,61.40
2018-03-14T18:42:17.528Z,61.40
2018-03-14T18:44:44.243Z,61.90
2018-03-14T18:47:10.622Z,61.90
2018-03-14T18:49:37.341Z,63.40
2018-03-14T18:52:03.342Z,63.30
2018-03-14T18:54:29.326Z,63.60
2018-03-14T18:56:56.785Z,64.10
2018-03-14T18:59:22.792Z,64.00
2018-03-14T19:01:48.748Z,64.70
2018-03-14T19:04:14.725Z,64.90
2018-03-14T19:06:41.428Z,64.90
2018-03-14T19:09:07.426Z,64.90
2018-03-14T19:11:34.188Z,65.20
2018-03-14T19:14:00.166Z,65.10
2018-03-14T19:16:26.157Z,65.20
2018-03-14T19:18:52.216Z,65.10
2018-03-14T19:21:18.196Z,65.30
2018-03-14T19:23:44.173Z,65.50
2018-03-14T19:26:10.523Z,65.70
2018-03-14T19:28:36.537Z,65.70
2018-03-14T19:31:03.261Z,65.60
2018-03-14T19:33:29.243Z,65.60
2018-03-14T19:35:55.204Z,66.10
2018-03-14T19:38:21.176Z,65.50
2018-03-14T19:40:47.144Z,65.60
2018-03-14T19:43:13.224Z,66.10
2018-03-14T19:45:39.205Z,65.50
2018-03-14T19:48:05.937Z,65.50
2018-03-14T19:50:32.685Z,65.30
2018-03-14T19:52:58.675Z,65.30
2018-03-14T19:55:24.656Z,66.10
2018-03-14T19:57:50.628Z,65.40
2018-03-14T20:00:16.585Z,65.70
2018-03-14T20:02:42.552Z,65.50
2018-03-14T20:05:08.530Z,65.60
2018-03-14T20:07:34.546Z,65.80
2018-03-14T20:10:01.320Z,66.70
2018-03-14T20:12:27.301Z,66.60
2018-03-14T20:14:53.273Z,66.40
2018-03-14T20:17:19.996Z,66.60
2018-03-14T20:19:45.973Z,67.10
2018-03-14T20:22:11.964Z,66.50
2018-03-14T20:24:37.950Z,66.80
2018-03-14T20:27:03.936Z,67.10
2018-03-14T20:29:29.906Z,67.30
2018-03-14T20:31:56.612Z,67.70
2018-03-14T20:34:22.581Z,67.70
2018-03-14T20:36:49.312Z,69.40
2018-03-14T20:39:15.282Z,68.60
2018-03-14T20:41:41.997Z,68.90
2018-03-14T20:44:08.003Z,68.90
2018-03-14T20:46:34.014Z,69.40
2018-03-14T20:49:00.748Z,69.90
2018-03-14T20:51:27.464Z,70.40
2018-03-14T20:53:53.447Z,70.30
2018-03-14T20:56:20.160Z,71.10
2018-03-14T20:58:46.136Z,71.10
2018-03-14T21:01:12.837Z,71.70
2018-03-14T21:03:38.831Z,71.70
2018-03-14T21:06:05.635Z,72.40
2018-03-14T21:08:32.312Z,72.30
2018-03-14T21:10:59.019Z,73.40
2018-03-14T21:13:25.008Z,72.80
2018-03-14T21:15:51.713Z,73.20
2018-03-14T21:18:17.689Z,73.10
2018-03-14T21:20:43.672Z,73.30
2018-03-14T21:23:10.361Z,74.10
2018-03-14T21:25:37.822Z,74.00
2018-03-14T21:28:03.818Z,74.00
2018-03-14T21:30:29.820Z,74.00
2018-03-14T21:32:55.812Z,74.40
2018-03-14T21:35:21.781Z,74.40
2018-03-14T21:37:47.816Z,74.20
2018-03-14T21:40:13.729Z,74.40
2018-03-14T21:42:39.694Z,74.40
2018-03-14T21:45:05.708Z,74.50
2018-03-14T21:47:31.679Z,74.60
2018-03-14T21:49:57.721Z,74.90
2018-03-14T21:52:23.684Z,74.80
2018-03-14T21:54:50.407Z,75.10
2018-03-14T21:57:17.234Z,75.10
2018-03-14T21:59:43.222Z,75.30
2018-03-14T22:02:09.217Z,75.40
2018-03-14T22:04:35.342Z,75.40
2018-03-14T22:07:01.306Z,75.50
2018-03-14T22:09:27.281Z,76.10
2018-03-14T22:11:54.005Z,76.60
2018-03-14T22:14:19.988Z,76.40
2018-03-14T22:16:45.968Z,76.30
2018-03-14T22:19:11.934Z,76.60
2018-03-14T22:21:38.658Z,76.60
2018-03-14T22:24:05.415Z,76.80
2018-03-14T22:26:32.116Z,76.50
2018-03-14T22:28:58.166Z,76.50
2018-03-14T22:31:24.152Z,76.60
2018-03-14T22:33:50.167Z,76.60
2018-03-14T22:36:16.944Z,77.20
2018-03-14T22:38:43.609Z,77.20
2018-03-14T22:41:09.588Z,77.10
2018-03-14T22:43:35.556Z,77.20
2018-03-14T22:46:01.521Z,77.50
2018-03-14T22:48:27.484Z,77.00
2018-03-14T22:50:53.469Z,77.20
2018-03-14T22:53:19.448Z,76.70
2018-03-14T22:55:45.428Z,76.60
2018-03-14T22:58:11.392Z,76.50
2018-03-14T23:00:37.381Z,76.50
2018-03-14T23:03:04.105Z,76.30
2018-03-14T23:05:30.077Z,76.30
2018-03-14T23:07:56.776Z,75.90
2018-03-14T23:10:22.772Z,75.90
2018-03-14T23:12:48.753Z,76.20
2018-03-14T23:15:14.725Z,76.00
2018-03-14T23:17:41.421Z,76.30
2018-03-14T23:20:07.404Z,76.20
2018-03-14T23:22:33.373Z,76.20
2018-03-14T23:24:59.350Z,76.30
2018-03-14T23:27:25.325Z,76.10
2018-03-14T23:29:52.029Z,76.30
2018-03-14T23:32:17.993Z,76.20
2018-03-14T23:34:43.988Z,76.10
2018-03-14T23:37:09.957Z,75.80
2018-03-14T23:39:35.922Z,75.90
2018-03-14T23:42:02.638Z,76.20
2018-03-14T23:44:28.605Z,76.20
2018-03-14T23:46:55.666Z,76.20
2018-03-14T23:49:22.364Z,76.00
2018-03-14T23:51:48.342Z,75.80
2018-03-14T23:54:15.045Z,76.10
2018-03-14T23:56:41.414Z,76.10
2018-03-14T23:59:07.372Z,76.10
